Nearby METAR Reports

 

KRSP - Nsf Thurmont, Maryland, USA
Distance from station: SE 8mi, 13km
Updated: Thu, 08-Dec-2022 3:54am EST
Overcast
Overcast
 Wind from NW
Wind: NW 9 mph , 15 km/h, Gust: 25 mph , 41 km/h
Temperature: 46°F , 8°C
Wind Chill: 41°F , 5°C
Dew Point: 39°F , 4°C
Humidity: 76%
Barometer: 30.21 inHg , 1023 hPa
Clouds: Overcast
Visibility: 10 miles , 16 km
Cloud details: Overcast 2400 ft
2022/12/08 08:54 KRSP 080854Z AUTO 31008G22KT 260V360 10SM OVC024 08/04 A3021 RMK AO2 SLP237 T00780044 53008 $
KHGR - Hagerstown, Maryland, USA
Distance from station: WSW 10mi, 16km
Updated: Thu, 08-Dec-2022 3:53am EST
Mostly cloudy
Mostly cloudy
 Wind from NNW
Wind: NNW 12 mph , 19 km/h
Temperature: 52°F , 11°C
Dew Point: 41°F , 5°C
Humidity: 67%
Barometer: 30.23 inHg , 1023.7 hPa
Clouds: Mostly cloudy
Visibility: 10 miles , 16 km
Cloud details: Mostly cloudy 3500 ft
2022/12/08 08:53 KHGR 080853Z AUTO 34010KT 10SM BKN035 11/05 A3023 RMK AO2 SLP250 T01110050 51008
KFDK - Frederick, Maryland, USA
Distance from station: SSE 25mi, 40km
Updated: Thu, 08-Dec-2022 4:20am EST
Fog, Overcast
Fog, Overcast
 Wind from calm
Wind: Calm
Temperature: 43°F , 6°C
Dew Point: 43°F , 6°C
Humidity: 100%
Barometer: 30.24 inHg , 1024 hPa
Summary: Fog
Clouds: Overcast
Visibility: 1/2 mile , 0.8 km
Cloud details: Overcast 300 ft
2022/12/08 09:20 KFDK 080920Z AUTO 00000KT 1/2SM FG OVC003 06/06 A3024 RMK AO2
 
KDMW - Carroll Cnty, Maryland, USA
Distance from station: ESE 31mi, 50km
Updated: Thu, 08-Dec-2022 4:15am EST
Overcast
Overcast
 Wind from calm
Wind: Calm
Temperature: 48°F , 9°C
Dew Point: 48°F , 9°C
Humidity: 100%
Barometer: 30.22 inHg , 1023.4 hPa
Clouds: Overcast
Visibility: 7 miles , 11 km
Cloud details: Overcast 3600 ft
2022/12/08 09:15 KDMW 080915Z AUTO 00000KT 7SM OVC036 09/09 A3022 RMK AO2
KMRB - Martinsburg, West Virginia, USA
Distance from station: SW 33mi, 53km
Updated: Thu, 08-Dec-2022 3:53am EST
Clear
Clear
 Wind from ESE
Wind: ESE 3 mph , 6 km/h
Temperature: 43°F , 6°C
Dew Point: 43°F , 6°C
Humidity: 100%
Barometer: 30.23 inHg , 1023.7 hPa
Clouds: Clear
Visibility: 10 miles , 16 km
2022/12/08 08:53 KMRB 080853Z AUTO 11003KT 10SM CLR 06/06 A3023 RMK AO2 SLP239 T00610056 53007 $
KTHV - York, Pennsylvania, USA
Distance from station: ENE 37mi, 60km
Updated: Thu, 08-Dec-2022 3:53am EST
Partly cloudy
Partly cloudy
 Wind from WNW
Wind: WNW 3 mph , 6 km/h
Temperature: 43°F , 6°C
Dew Point: 41°F , 5°C
Humidity: 93%
Barometer: 30.22 inHg , 1023.4 hPa
Clouds: Partly cloudy
Cloud details: Partly cloudy 3700 ft
2022/12/08 08:53 KTHV 080853Z AUTO 30003KT SCT037 06/05 A3022 RMK AO2 SLP238 T00560050 53009 $
 
KGAI - Gaithersburg, Maryland, USA
Distance from station: SSE 45mi, 72km
Updated: Thu, 08-Dec-2022 3:56am EST
Mist, Overcast
Mist, Overcast
 Wind from calm
Wind: Calm
Temperature: 43°F , 6°C
Dew Point: 43°F , 6°C
Humidity: 100%
Barometer: 30.23 inHg , 1023.7 hPa
Summary: Mist
Clouds: Overcast
Visibility: 3 miles , 5 km
Cloud details: Overcast 3200 ft
2022/12/08 08:56 KGAI 080856Z AUTO 00000KT 3SM BR OVC032 06/06 A3023 RMK AO2 SLP254 T00560056 51008
KJYO - Leesburg/Godfrey, Virginia, USA
Distance from station: S 47mi, 75km
Updated: Thu, 08-Dec-2022 4:35am EST
Overcast
Overcast
 Wind from N
Wind: N 6 mph , 9 km/h
Temperature: 50°F , 10°C
Wind Chill: 48°F , 9°C
Dew Point: 48°F , 9°C
Humidity: 94%
Barometer: 30.26 inHg , 1024.7 hPa
Clouds: Overcast
Visibility: 10 miles , 16 km
Cloud details: Overcast 3400 ft
2022/12/08 09:35 KJYO 080935Z AUTO 01005KT 10SM OVC034 10/09 A3026 RMK AO2
KCXY - Harrisburg, Pennsylvania, USA
Distance from station: NE 50mi, 80km
Updated: Thu, 08-Dec-2022 3:56am EST
Overcast
Overcast
 Wind from calm
Wind: Calm
Temperature: 52°F , 11°C
Dew Point: 45°F , 7°C
Humidity: 77%
Barometer: 30.22 inHg , 1023.4 hPa
Clouds: Overcast
Visibility: 10 miles , 16 km
Cloud details: Overcast 3900 ft
2022/12/08 08:56 KCXY 080856Z AUTO 00000KT 10SM OVC039 11/07 A3022 RMK AO2 SLP237 T01060072 53010
 
KMDT - Middletown, Pennsylvania, USA
Distance from station: NE 52mi, 84km
Updated: Thu, 08-Dec-2022 4:32am EST
Mist, Few clouds
Mist, Few clouds
 Wind from SE
Wind: SE 3 mph , 6 km/h
Temperature: 39°F , 4°C
Dew Point: 39°F , 4°C
Humidity: 100%
Barometer: 30.22 inHg , 1023.4 hPa
Summary: Mist
Clouds: Few Clouds
Visibility: 4 miles , 6 km
Cloud details: Few Clouds 4300 ft
2022/12/08 09:32 KMDT 080932Z 13003KT 4SM R13/2600VP6000FT BR FEW043 04/04 A3022 RMK AO2 T00390039
KOKV - Winchester Rgnl, Virginia, USA
Distance from station: SW 53mi, 85km
Updated: Thu, 08-Dec-2022 4:35am EST
Partly cloudy
Partly cloudy
 Wind from calm
Wind: Calm
Temperature: 50°F , 10°C
Dew Point: 45°F , 7°C
Humidity: 82%
Barometer: 30.23 inHg , 1023.7 hPa
Clouds: Partly cloudy
Visibility: 10 miles , 16 km
Cloud details: Partly cloudy 3300 ft
2022/12/08 09:35 KOKV 080935Z AUTO 00000KT 10SM SCT033 10/07 A3023 RMK AO2
KAOO - Altoona, Pennsylvania, USA
Distance from station: NW 56mi, 90km
Updated: Thu, 08-Dec-2022 3:53am EST
Overcast
Overcast
 Wind from NW
Wind: NW 9 mph , 15 km/h
Temperature: 48°F , 9°C
Wind Chill: 44°F , 7°C
Dew Point: 39°F , 4°C
Humidity: 71%
Barometer: 30.25 inHg , 1024.4 hPa
Clouds: Overcast
Visibility: 10 miles , 16 km
Cloud details: Overcast 2400 ft
2022/12/08 08:53 KAOO 080853Z AUTO 31008KT 10SM OVC024 09/04 A3025 RMK AO2 SLP246 T00890044 50005
 
KIAD - Wash Dc/Dulles, Virginia, USA
Distance from station: S 56mi, 90km
Updated: Thu, 08-Dec-2022 3:52am EST
Mist, Overcast
Mist, Overcast
 Wind from calm
Wind: Calm
Temperature: 45°F , 7°C
Dew Point: 43°F , 6°C
Humidity: 93%
Barometer: 30.23 inHg , 1023.7 hPa
Summary: Mist
Clouds: Overcast
Visibility: 3 miles , 5 km
Cloud details: Overcast 3500 ft
2022/12/08 08:52 KIAD 080852Z 00000KT 3SM BR OVC035 07/06 A3023 RMK AO2 SLP236 VIS W 1 T00670061 53006 $
KHMZ - Bedford, Pennsylvania, USA
Distance from station: WNW 56mi, 91km
Updated: Thu, 08-Dec-2022 4:15am EST
Overcast
Overcast
 Wind from NNW
Wind: NNW 9 mph , 15 km/h
Temperature: 48°F , 9°C
Wind Chill: 44°F , 7°C
Dew Point: 39°F , 4°C
Humidity: 71%
Barometer: 30.26 inHg , 1024.7 hPa
Clouds: Overcast
Visibility: 10 miles , 16 km
Cloud details: Overcast 2800 ft
2022/12/08 09:15 KHMZ 080915Z AUTO 33008KT 10SM OVC028 09/04 A3026 RMK AO2 T00900037
KBWI - Balto/Wash Intl, Maryland, USA
Distance from station: SE 61mi, 98km
Updated: Thu, 08-Dec-2022 3:54am EST
Mist, Partly cloudy
Mist, Partly cloudy
 Wind from calm
Wind: Calm
Temperature: 46°F , 8°C
Dew Point: 45°F , 7°C
Humidity: 93%
Barometer: 30.21 inHg , 1023 hPa
Summary: Mist
Clouds: Partly cloudy
Visibility: 6 miles , 10 km
Cloud details: Partly cloudy 3200 ft
2022/12/08 08:54 KBWI 080854Z 00000KT 6SM BR SCT032 08/07 A3021 RMK AO2 SLP231 T00780072 52009
 
KFME - Fort Meade, Maryland, USA
Distance from station: SE 62mi, 100km
Updated: Thu, 08-Dec-2022 4:19am EST
Overcast
Overcast
 Wind from WNW
Wind: WNW 3 mph , 6 km/h
Temperature: 45°F , 7°C
Dew Point: 45°F , 7°C
Humidity: 100%
Barometer: 30.24 inHg , 1024 hPa
Clouds: Overcast
Visibility: 2 miles , 3 km
Cloud details: Mostly cloudy 2900 ft
Overcast 3500 ft
2022/12/08 09:19 KFME 080919Z AUTO 30003KT 2SM BKN029 OVC035 07/07 A3024 RMK AO1
KCGS - College Park, Maryland, USA
Distance from station: SE 62mi, 101km
Updated: Wed, 07-Dec-2022 11:15pm EST
NOT Current
Mist, Overcast
Mist, Overcast
 Wind from calm
Wind: Calm
Temperature: 54°F , 12°C
Dew Point: 52°F , 11°C
Humidity: 94%
Barometer: 30.20 inHg , 1022.7 hPa
Summary: Mist
Clouds: Overcast
Visibility: 4 miles , 6 km
Cloud details: Overcast 400 ft
2022/12/08 04:15 KCGS 080415Z AUTO 00000KT 4SM BR OVC004 12/11 A3020 RMK AO2 T01160113
KCBE - Cumberland Reg, Maryland, USA
Distance from station: W 65mi, 105km
Updated: Thu, 08-Dec-2022 4:15am EST
Overcast
Overcast
 Wind from WNW
Wind: WNW 6 mph , 9 km/h
Temperature: 52°F , 11°C
Dew Point: 41°F , 5°C
Humidity: 67%
Barometer: 30.30 inHg , 1026.1 hPa
Clouds: Overcast
Visibility: 10 miles , 16 km
Cloud details: Overcast 3200 ft
2022/12/08 09:15 KCBE 080915Z AUTO 30005KT 10SM OVC032 11/05 A3030 RMK AO2 T01120051
 
KRVL - Reedsville, Pennsylvania, USA
Distance from station: N 65mi, 105km
Updated: Thu, 08-Dec-2022 4:35am EST
Overcast
Overcast
 Wind from NNW
Wind: NNW 5 mph , 7 km/h
Temperature: 50°F , 10°C
Wind Chill: 48°F , 9°C
Dew Point: 41°F , 5°C
Humidity: 71%
Barometer: 30.25 inHg , 1024.4 hPa
Clouds: Overcast
Visibility: 10 miles , 16 km
Cloud details: Overcast 2500 ft
2022/12/08 09:35 KRVL 080935Z AUTO 34004KT 10SM OVC025 10/05 A3025 RMK AO2
KMTN - Baltimore/Martin, Maryland, USA
Distance from station: ESE 67mi, 108km
Updated: Thu, 08-Dec-2022 4:18am EST
Mist, Clear
Mist, Clear
 Wind from NW
Wind: NW 6 mph , 9 km/h
Temperature: 46°F , 8°C
Wind Chill: 43°F , 6°C
Dew Point: 46°F , 8°C
Humidity: 100%
Barometer: 30.23 inHg , 1023.7 hPa
Summary: Mist
Clouds: Clear
Visibility: 5 miles , 8 km
2022/12/08 09:18 KMTN 080918Z AUTO 31005KT 5SM BR CLR 08/08 A3023 RMK AO2